sensor_id;sensor_type;location;lat;lon;timestamp;P1;durP1;ratioP1;P2;durP2;ratioP2
29358;SDS011;16347;53.232;6.556;2024-01-30T00:01:28;28.67;;;15.77;;
29358;SDS011;16347;53.232;6.556;2024-01-30T00:03:58;26.63;;;15.50;;
29358;SDS011;16347;53.232;6.556;2024-01-30T00:06:26;29.55;;;16.08;;
29358;SDS011;16347;53.232;6.556;2024-01-30T00:08:55;28.50;;;15.60;;
29358;SDS011;16347;53.232;6.556;2024-01-30T00:11:23;30.17;;;15.85;;
29358;SDS011;16347;53.232;6.556;2024-01-30T00:13:51;32.47;;;16.38;;
29358;SDS011;16347;53.232;6.556;2024-01-30T00:16:20;28.92;;;15.38;;
29358;SDS011;16347;53.232;6.556;2024-01-30T00:18:48;24.35;;;15.35;;
29358;SDS011;16347;53.232;6.556;2024-01-30T00:21:17;27.00;;;14.88;;
29358;SDS011;16347;53.232;6.556;2024-01-30T00:23:45;33.22;;;16.20;;
29358;SDS011;16347;53.232;6.556;2024-01-30T00:26:13;31.02;;;16.55;;
29358;SDS011;16347;53.232;6.556;2024-01-30T00:28:42;27.67;;;16.55;;
29358;SDS011;16347;53.232;6.556;2024-01-30T00:31:10;29.17;;;16.15;;
29358;SDS011;16347;53.232;6.556;2024-01-30T00:33:39;33.80;;;17.60;;
29358;SDS011;16347;53.232;6.556;2024-01-30T00:36:07;36.10;;;16.38;;
29358;SDS011;16347;53.232;6.556;2024-01-30T00:38:38;30.30;;;16.13;;
29358;SDS011;16347;53.232;6.556;2024-01-30T00:41:07;27.98;;;15.75;;
29358;SDS011;16347;53.232;6.556;2024-01-30T00:43:35;29.38;;;16.17;;
29358;SDS011;16347;53.232;6.556;2024-01-30T00:46:04;34.88;;;16.17;;
29358;SDS011;16347;53.232;6.556;2024-01-30T00:48:32;27.75;;;16.00;;
29358;SDS011;16347;53.232;6.556;2024-01-30T00:51:00;28.40;;;15.55;;
29358;SDS011;16347;53.232;6.556;2024-01-30T00:53:28;28.25;;;15.43;;
29358;SDS011;16347;53.232;6.556;2024-01-30T00:55:57;28.33;;;15.63;;
29358;SDS011;16347;53.232;6.556;2024-01-30T00:58:25;31.38;;;16.88;;
29358;SDS011;16347;53.232;6.556;2024-01-30T01:00:53;28.35;;;16.17;;
29358;SDS011;16347;53.232;6.556;2024-01-30T01:03:22;32.88;;;16.60;;
29358;SDS011;16347;53.232;6.556;2024-01-30T01:05:50;31.63;;;16.27;;
29358;SDS011;16347;53.232;6.556;2024-01-30T01:08:18;28.48;;;15.38;;
29358;SDS011;16347;53.232;6.556;2024-01-30T01:10:46;27.77;;;16.48;;
29358;SDS011;16347;53.232;6.556;2024-01-30T01:13:16;28.48;;;16.98;;
29358;SDS011;16347;53.232;6.556;2024-01-30T01:15:44;32.63;;;17.88;;
29358;SDS011;16347;53.232;6.556;2024-01-30T01:18:12;28.15;;;15.45;;
29358;SDS011;16347;53.232;6.556;2024-01-30T01:20:40;32.65;;;15.27;;
29358;SDS011;16347;53.232;6.556;2024-01-30T01:23:08;27.92;;;16.63;;
29358;SDS011;16347;53.232;6.556;2024-01-30T01:25:36;34.22;;;17.13;;
29358;SDS011;16347;53.232;6.556;2024-01-30T01:28:04;30.98;;;16.33;;
29358;SDS011;16347;53.232;6.556;2024-01-30T01:30:34;36.30;;;16.60;;
29358;SDS011;16347;53.232;6.556;2024-01-30T01:33:02;32.92;;;17.30;;
29358;SDS011;16347;53.232;6.556;2024-01-30T01:35:30;36.30;;;17.48;;
29358;SDS011;16347;53.232;6.556;2024-01-30T01:37:58;38.60;;;17.33;;
29358;SDS011;16347;53.232;6.556;2024-01-30T01:40:27;38.95;;;17.38;;
29358;SDS011;16347;53.232;6.556;2024-01-30T01:42:55;31.17;;;16.38;;
29358;SDS011;16347;53.232;6.556;2024-01-30T01:45:23;32.70;;;17.30;;
29358;SDS011;16347;53.232;6.556;2024-01-30T01:47:53;31.65;;;16.70;;
29358;SDS011;16347;53.232;6.556;2024-01-30T01:50:21;29.23;;;16.15;;
29358;SDS011;16347;53.232;6.556;2024-01-30T01:52:51;33.38;;;17.58;;
29358;SDS011;16347;53.232;6.556;2024-01-30T01:55:20;31.17;;;16.67;;
29358;SDS011;16347;53.232;6.556;2024-01-30T01:57:51;28.92;;;16.88;;
29358;SDS011;16347;53.232;6.556;2024-01-30T02:00:21;29.23;;;15.95;;
29358;SDS011;16347;53.232;6.556;2024-01-30T02:02:50;32.33;;;17.55;;
29358;SDS011;16347;53.232;6.556;2024-01-30T02:05:22;27.45;;;16.60;;
29358;SDS011;16347;53.232;6.556;2024-01-30T02:07:51;30.63;;;17.15;;
29358;SDS011;16347;53.232;6.556;2024-01-30T02:10:20;34.17;;;17.40;;
29358;SDS011;16347;53.232;6.556;2024-01-30T02:12:48;33.85;;;16.98;;
29358;SDS011;16347;53.232;6.556;2024-01-30T02:15:17;35.05;;;17.42;;
29358;SDS011;16347;53.232;6.556;2024-01-30T02:17:45;30.83;;;16.67;;
29358;SDS011;16347;53.232;6.556;2024-01-30T02:20:13;31.10;;;17.38;;
29358;SDS011;16347;53.232;6.556;2024-01-30T02:22:42;33.42;;;18.25;;
29358;SDS011;16347;53.232;6.556;2024-01-30T02:25:10;29.10;;;16.60;;
29358;SDS011;16347;53.232;6.556;2024-01-30T02:27:38;26.23;;;16.08;;
29358;SDS011;16347;53.232;6.556;2024-01-30T02:30:07;31.95;;;16.92;;
29358;SDS011;16347;53.232;6.556;2024-01-30T02:32:35;26.08;;;16.33;;
29358;SDS011;16347;53.232;6.556;2024-01-30T02:35:03;27.77;;;16.15;;
29358;SDS011;16347;53.232;6.556;2024-01-30T02:37:32;28.75;;;15.32;;
29358;SDS011;16347;53.232;6.556;2024-01-30T02:40:01;33.33;;;15.93;;
29358;SDS011;16347;53.232;6.556;2024-01-30T02:42:30;29.83;;;16.27;;
29358;SDS011;16347;53.232;6.556;2024-01-30T02:44:58;26.70;;;16.38;;
29358;SDS011;16347;53.232;6.556;2024-01-30T02:47:26;32.55;;;15.80;;
29358;SDS011;16347;53.232;6.556;2024-01-30T02:49:53;29.00;;;15.68;;
29358;SDS011;16347;53.232;6.556;2024-01-30T02:52:22;33.00;;;16.85;;
29358;SDS011;16347;53.232;6.556;2024-01-30T02:54:50;29.55;;;16.73;;
29358;SDS011;16347;53.232;6.556;2024-01-30T02:57:19;34.15;;;16.92;;
29358;SDS011;16347;53.232;6.556;2024-01-30T02:59:47;33.22;;;17.30;;
29358;SDS011;16347;53.232;6.556;2024-01-30T03:02:15;31.88;;;15.90;;
29358;SDS011;16347;53.232;6.556;2024-01-30T03:04:43;26.35;;;16.85;;
29358;SDS011;16347;53.232;6.556;2024-01-30T03:07:11;31.58;;;16.80;;
29358;SDS011;16347;53.232;6.556;2024-01-30T03:09:41;33.70;;;15.57;;
29358;SDS011;16347;53.232;6.556;2024-01-30T03:12:10;33.63;;;16.08;;
29358;SDS011;16347;53.232;6.556;2024-01-30T03:14:40;35.65;;;16.23;;
29358;SDS011;16347;53.232;6.556;2024-01-30T03:17:08;36.92;;;16.73;;
29358;SDS011;16347;53.232;6.556;2024-01-30T03:19:36;30.38;;;15.98;;
29358;SDS011;16347;53.232;6.556;2024-01-30T03:22:04;30.42;;;15.77;;
29358;SDS011;16347;53.232;6.556;2024-01-30T03:24:32;26.45;;;15.52;;
29358;SDS011;16347;53.232;6.556;2024-01-30T03:27:00;31.08;;;16.25;;
29358;SDS011;16347;53.232;6.556;2024-01-30T03:29:28;26.83;;;14.98;;
29358;SDS011;16347;53.232;6.556;2024-01-30T03:31:58;33.65;;;15.50;;
29358;SDS011;16347;53.232;6.556;2024-01-30T03:34:26;26.60;;;15.90;;
29358;SDS011;16347;53.232;6.556;2024-01-30T03:36:54;27.95;;;15.55;;
29358;SDS011;16347;53.232;6.556;2024-01-30T03:39:24;28.52;;;15.73;;
29358;SDS011;16347;53.232;6.556;2024-01-30T03:41:52;27.17;;;15.25;;
29358;SDS011;16347;53.232;6.556;2024-01-30T03:44:19;24.58;;;14.88;;
29358;SDS011;16347;53.232;6.556;2024-01-30T03:46:47;27.63;;;15.50;;
29358;SDS011;16347;53.232;6.556;2024-01-30T03:49:17;28.85;;;15.52;;
29358;SDS011;16347;53.232;6.556;2024-01-30T03:51:45;31.08;;;15.13;;
29358;SDS011;16347;53.232;6.556;2024-01-30T03:54:14;24.45;;;13.95;;
29358;SDS011;16347;53.232;6.556;2024-01-30T03:56:43;26.83;;;14.98;;
29358;SDS011;16347;53.232;6.556;2024-01-30T03:59:11;23.80;;;14.68;;
29358;SDS011;16347;53.232;6.556;2024-01-30T04:01:39;27.00;;;15.43;;
29358;SDS011;16347;53.232;6.556;2024-01-30T04:04:07;25.77;;;14.02;;
29358;SDS011;16347;53.232;6.556;2024-01-30T04:06:37;23.73;;;13.63;;
29358;SDS011;16347;53.232;6.556;2024-01-30T04:09:06;24.05;;;13.18;;
29358;SDS011;16347;53.232;6.556;2024-01-30T04:11:33;30.30;;;14.82;;
29358;SDS011;16347;53.232;6.556;2024-01-30T04:14:02;32.33;;;14.65;;
29358;SDS011;16347;53.232;6.556;2024-01-30T04:16:30;29.95;;;14.68;;
29358;SDS011;16347;53.232;6.556;2024-01-30T04:18:58;28.40;;;13.90;;
29358;SDS011;16347;53.232;6.556;2024-01-30T04:21:26;27.55;;;13.98;;
29358;SDS011;16347;53.232;6.556;2024-01-30T04:23:56;23.92;;;14.77;;
29358;SDS011;16347;53.232;6.556;2024-01-30T04:26:24;25.45;;;13.95;;
29358;SDS011;16347;53.232;6.556;2024-01-30T04:28:53;28.63;;;14.10;;
29358;SDS011;16347;53.232;6.556;2024-01-30T04:31:21;22.83;;;13.15;;
29358;SDS011;16347;53.232;6.556;2024-01-30T04:33:49;26.30;;;13.85;;
29358;SDS011;16347;53.232;6.556;2024-01-30T04:36:17;25.23;;;14.02;;
29358;SDS011;16347;53.232;6.556;2024-01-30T04:38:45;28.55;;;13.93;;
29358;SDS011;16347;53.232;6.556;2024-01-30T04:41:14;27.33;;;13.73;;
29358;SDS011;16347;53.232;6.556;2024-01-30T04:43:42;25.23;;;14.60;;
29358;SDS011;16347;53.232;6.556;2024-01-30T04:46:11;30.40;;;14.13;;
29358;SDS011;16347;53.232;6.556;2024-01-30T04:48:39;26.17;;;14.25;;
29358;SDS011;16347;53.232;6.556;2024-01-30T04:51:07;25.00;;;12.38;;
29358;SDS011;16347;53.232;6.556;2024-01-30T04:53:36;28.10;;;14.18;;
29358;SDS011;16347;53.232;6.556;2024-01-30T04:56:06;24.95;;;13.40;;
29358;SDS011;16347;53.232;6.556;2024-01-30T04:58:37;23.85;;;14.23;;
29358;SDS011;16347;53.232;6.556;2024-01-30T05:01:04;22.80;;;13.07;;
29358;SDS011;16347;53.232;6.556;2024-01-30T05:03:33;21.45;;;13.75;;
29358;SDS011;16347;53.232;6.556;2024-01-30T05:06:02;24.55;;;12.90;;
29358;SDS011;16347;53.232;6.556;2024-01-30T05:08:31;24.50;;;12.50;;
29358;SDS011;16347;53.232;6.556;2024-01-30T05:10:59;21.65;;;13.20;;
29358;SDS011;16347;53.232;6.556;2024-01-30T05:13:30;26.88;;;13.93;;
29358;SDS011;16347;53.232;6.556;2024-01-30T05:15:59;22.02;;;12.57;;
29358;SDS011;16347;53.232;6.556;2024-01-30T05:18:31;28.58;;;14.27;;
29358;SDS011;16347;53.232;6.556;2024-01-30T05:20:59;22.80;;;12.38;;
29358;SDS011;16347;53.232;6.556;2024-01-30T05:23:27;29.75;;;12.68;;
29358;SDS011;16347;53.232;6.556;2024-01-30T05:25:55;20.80;;;13.02;;
29358;SDS011;16347;53.232;6.556;2024-01-30T05:28:23;25.13;;;12.75;;
29358;SDS011;16347;53.232;6.556;2024-01-30T05:30:51;23.92;;;13.23;;
29358;SDS011;16347;53.232;6.556;2024-01-30T05:33:21;23.50;;;13.38;;
29358;SDS011;16347;53.232;6.556;2024-01-30T05:35:50;24.63;;;12.57;;
29358;SDS011;16347;53.232;6.556;2024-01-30T05:38:21;23.83;;;12.98;;
29358;SDS011;16347;53.232;6.556;2024-01-30T05:40:49;21.23;;;12.27;;
29358;SDS011;16347;53.232;6.556;2024-01-30T05:43:17;27.00;;;13.20;;
29358;SDS011;16347;53.232;6.556;2024-01-30T05:45:45;22.38;;;13.05;;
29358;SDS011;16347;53.232;6.556;2024-01-30T05:48:14;24.67;;;13.27;;
29358;SDS011;16347;53.232;6.556;2024-01-30T05:50:43;24.08;;;12.88;;
29358;SDS011;16347;53.232;6.556;2024-01-30T05:53:12;20.63;;;12.32;;
29358;SDS011;16347;53.232;6.556;2024-01-30T05:55:40;25.60;;;13.85;;
29358;SDS011;16347;53.232;6.556;2024-01-30T05:58:08;23.27;;;12.68;;
29358;SDS011;16347;53.232;6.556;2024-01-30T06:00:36;23.55;;;12.95;;
29358;SDS011;16347;53.232;6.556;2024-01-30T06:03:05;25.13;;;12.55;;
29358;SDS011;16347;53.232;6.556;2024-01-30T06:05:33;25.55;;;13.38;;
29358;SDS011;16347;53.232;6.556;2024-01-30T06:08:03;25.08;;;13.88;;
29358;SDS011;16347;53.232;6.556;2024-01-30T06:10:32;26.90;;;13.90;;
29358;SDS011;16347;53.232;6.556;2024-01-30T06:13:01;27.90;;;14.10;;
29358;SDS011;16347;53.232;6.556;2024-01-30T06:15:29;26.02;;;13.07;;
29358;SDS011;16347;53.232;6.556;2024-01-30T06:17:59;22.02;;;13.00;;
29358;SDS011;16347;53.232;6.556;2024-01-30T06:20:27;21.23;;;13.13;;
29358;SDS011;16347;53.232;6.556;2024-01-30T06:22:55;24.58;;;12.80;;
29358;SDS011;16347;53.232;6.556;2024-01-30T06:25:25;25.67;;;12.85;;
29358;SDS011;16347;53.232;6.556;2024-01-30T06:27:54;23.30;;;13.35;;
29358;SDS011;16347;53.232;6.556;2024-01-30T06:30:22;22.45;;;13.15;;
29358;SDS011;16347;53.232;6.556;2024-01-30T06:32:50;28.17;;;13.20;;
29358;SDS011;16347;53.232;6.556;2024-01-30T06:35:19;22.95;;;12.73;;
29358;SDS011;16347;53.232;6.556;2024-01-30T06:37:48;28.67;;;13.77;;
29358;SDS011;16347;53.232;6.556;2024-01-30T06:40:16;26.40;;;13.07;;
29358;SDS011;16347;53.232;6.556;2024-01-30T06:42:47;26.08;;;13.02;;
29358;SDS011;16347;53.232;6.556;2024-01-30T06:45:15;23.92;;;13.70;;
29358;SDS011;16347;53.232;6.556;2024-01-30T06:47:43;24.27;;;12.57;;
29358;SDS011;16347;53.232;6.556;2024-01-30T06:50:11;25.42;;;12.60;;
29358;SDS011;16347;53.232;6.556;2024-01-30T06:52:40;29.17;;;14.30;;
29358;SDS011;16347;53.232;6.556;2024-01-30T06:55:08;20.70;;;12.25;;
29358;SDS011;16347;53.232;6.556;2024-01-30T06:57:37;25.00;;;12.93;;
29358;SDS011;16347;53.232;6.556;2024-01-30T07:00:07;28.63;;;12.57;;
29358;SDS011;16347;53.232;6.556;2024-01-30T07:02:36;23.27;;;12.60;;
29358;SDS011;16347;53.232;6.556;2024-01-30T07:05:06;33.67;;;12.80;;
29358;SDS011;16347;53.232;6.556;2024-01-30T07:07:34;25.13;;;13.73;;
29358;SDS011;16347;53.232;6.556;2024-01-30T07:10:02;26.20;;;13.32;;
29358;SDS011;16347;53.232;6.556;2024-01-30T07:12:31;26.58;;;12.45;;
29358;SDS011;16347;53.232;6.556;2024-01-30T07:14:59;30.48;;;13.05;;
29358;SDS011;16347;53.232;6.556;2024-01-30T07:17:30;21.38;;;11.32;;
29358;SDS011;16347;53.232;6.556;2024-01-30T07:19:58;25.13;;;12.48;;
29358;SDS011;16347;53.232;6.556;2024-01-30T07:22:26;27.00;;;12.60;;
29358;SDS011;16347;53.232;6.556;2024-01-30T07:24:54;25.48;;;13.07;;
29358;SDS011;16347;53.232;6.556;2024-01-30T07:27:22;20.05;;;11.82;;
29358;SDS011;16347;53.232;6.556;2024-01-30T07:29:51;28.40;;;13.35;;
29358;SDS011;16347;53.232;6.556;2024-01-30T07:32:18;27.58;;;13.43;;
29358;SDS011;16347;53.232;6.556;2024-01-30T07:34:48;20.75;;;12.27;;
29358;SDS011;16347;53.232;6.556;2024-01-30T07:37:32;20.90;;;12.93;;
29358;SDS011;16347;53.232;6.556;2024-01-30T07:40:01;26.85;;;13.57;;
29358;SDS011;16347;53.232;6.556;2024-01-30T07:42:30;25.88;;;12.38;;
29358;SDS011;16347;53.232;6.556;2024-01-30T07:44:58;20.95;;;11.73;;
29358;SDS011;16347;53.232;6.556;2024-01-30T07:47:26;28.67;;;12.80;;
29358;SDS011;16347;53.232;6.556;2024-01-30T07:49:55;23.60;;;13.38;;
29358;SDS011;16347;53.232;6.556;2024-01-30T07:52:24;22.92;;;13.30;;
29358;SDS011;16347;53.232;6.556;2024-01-30T07:54:52;27.60;;;13.95;;
29358;SDS011;16347;53.232;6.556;2024-01-30T07:57:20;30.67;;;13.60;;
29358;SDS011;16347;53.232;6.556;2024-01-30T07:59:48;25.25;;;13.73;;
29358;SDS011;16347;53.232;6.556;2024-01-30T08:02:16;27.58;;;13.50;;
29358;SDS011;16347;53.232;6.556;2024-01-30T08:04:44;27.02;;;13.60;;
29358;SDS011;16347;53.232;6.556;2024-01-30T08:07:17;24.17;;;13.00;;
29358;SDS011;16347;53.232;6.556;2024-01-30T08:09:45;27.42;;;12.95;;
29358;SDS011;16347;53.232;6.556;2024-01-30T08:12:13;22.88;;;11.93;;
29358;SDS011;16347;53.232;6.556;2024-01-30T08:14:41;21.98;;;11.43;;
29358;SDS011;16347;53.232;6.556;2024-01-30T08:17:09;21.88;;;11.75;;
29358;SDS011;16347;53.232;6.556;2024-01-30T08:19:37;24.55;;;12.45;;
29358;SDS011;16347;53.232;6.556;2024-01-30T08:22:05;25.27;;;11.60;;
29358;SDS011;16347;53.232;6.556;2024-01-30T08:24:34;24.63;;;12.30;;
29358;SDS011;16347;53.232;6.556;2024-01-30T08:27:03;24.02;;;13.07;;
29358;SDS011;16347;53.232;6.556;2024-01-30T08:29:31;24.75;;;12.23;;
29358;SDS011;16347;53.232;6.556;2024-01-30T08:31:59;24.77;;;12.30;;
29358;SDS011;16347;53.232;6.556;2024-01-30T08:34:27;22.00;;;11.50;;
29358;SDS011;16347;53.232;6.556;2024-01-30T08:36:56;21.85;;;12.13;;
29358;SDS011;16347;53.232;6.556;2024-01-30T08:39:24;24.40;;;11.32;;
29358;SDS011;16347;53.232;6.556;2024-01-30T08:41:53;28.33;;;13.48;;
29358;SDS011;16347;53.232;6.556;2024-01-30T08:44:21;23.50;;;12.73;;
29358;SDS011;16347;53.232;6.556;2024-01-30T08:46:49;22.40;;;12.10;;
29358;SDS011;16347;53.232;6.556;2024-01-30T08:49:19;25.52;;;12.38;;
29358;SDS011;16347;53.232;6.556;2024-01-30T08:51:47;21.58;;;11.40;;
29358;SDS011;16347;53.232;6.556;2024-01-30T08:54:16;27.45;;;12.45;;
29358;SDS011;16347;53.232;6.556;2024-01-30T08:56:45;23.05;;;12.27;;
29358;SDS011;16347;53.232;6.556;2024-01-30T08:59:14;25.45;;;11.55;;
29358;SDS011;16347;53.232;6.556;2024-01-30T09:01:43;20.87;;;11.60;;
29358;SDS011;16347;53.232;6.556;2024-01-30T09:04:29;25.55;;;12.07;;
29358;SDS011;16347;53.232;6.556;2024-01-30T09:06:57;28.60;;;12.50;;
29358;SDS011;16347;53.232;6.556;2024-01-30T09:09:25;19.48;;;11.77;;
29358;SDS011;16347;53.232;6.556;2024-01-30T09:11:53;18.90;;;10.68;;
29358;SDS011;16347;53.232;6.556;2024-01-30T09:14:22;24.10;;;12.18;;
29358;SDS011;16347;53.232;6.556;2024-01-30T09:16:50;25.02;;;11.10;;
29358;SDS011;16347;53.232;6.556;2024-01-30T09:19:18;25.10;;;12.23;;
29358;SDS011;16347;53.232;6.556;2024-01-30T09:21:46;28.08;;;12.27;;
29358;SDS011;16347;53.232;6.556;2024-01-30T09:24:15;19.20;;;11.43;;
29358;SDS011;16347;53.232;6.556;2024-01-30T09:26:43;23.33;;;12.38;;
29358;SDS011;16347;53.232;6.556;2024-01-30T09:29:11;18.98;;;11.65;;
29358;SDS011;16347;53.232;6.556;2024-01-30T09:31:41;25.85;;;12.75;;
29358;SDS011;16347;53.232;6.556;2024-01-30T09:34:10;24.75;;;11.57;;
29358;SDS011;16347;53.232;6.556;2024-01-30T09:36:39;20.13;;;10.88;;
29358;SDS011;16347;53.232;6.556;2024-01-30T09:39:07;22.67;;;11.75;;
29358;SDS011;16347;53.232;6.556;2024-01-30T09:41:36;20.35;;;11.40;;
29358;SDS011;16347;53.232;6.556;2024-01-30T09:44:13;29.75;;;11.93;;
29358;SDS011;16347;53.232;6.556;2024-01-30T09:46:45;25.75;;;10.80;;
29358;SDS011;16347;53.232;6.556;2024-01-30T09:49:16;21.10;;;11.37;;
29358;SDS011;16347;53.232;6.556;2024-01-30T09:51:47;25.90;;;10.88;;
29358;SDS011;16347;53.232;6.556;2024-01-30T09:54:16;23.25;;;11.05;;
29358;SDS011;16347;53.232;6.556;2024-01-30T09:56:45;22.52;;;11.43;;
29358;SDS011;16347;53.232;6.556;2024-01-30T09:59:15;24.17;;;11.40;;
29358;SDS011;16347;53.232;6.556;2024-01-30T10:01:44;20.40;;;10.90;;
29358;SDS011;16347;53.232;6.556;2024-01-30T10:04:13;25.85;;;11.40;;
29358;SDS011;16347;53.232;6.556;2024-01-30T10:06:42;20.13;;;11.10;;
29358;SDS011;16347;53.232;6.556;2024-01-30T10:09:10;24.17;;;12.25;;
29358;SDS011;16347;53.232;6.556;2024-01-30T10:11:39;24.27;;;12.32;;
29358;SDS011;16347;53.232;6.556;2024-01-30T10:14:08;33.30;;;12.27;;
29358;SDS011;16347;53.232;6.556;2024-01-30T10:16:37;30.65;;;12.80;;
29358;SDS011;16347;53.232;6.556;2024-01-30T10:19:06;20.23;;;10.82;;
29358;SDS011;16347;53.232;6.556;2024-01-30T10:21:35;25.83;;;11.50;;
29358;SDS011;16347;53.232;6.556;2024-01-30T10:24:04;25.73;;;11.20;;
29358;SDS011;16347;53.232;6.556;2024-01-30T10:26:32;25.90;;;11.63;;
29358;SDS011;16347;53.232;6.556;2024-01-30T10:29:00;20.45;;;11.63;;
29358;SDS011;16347;53.232;6.556;2024-01-30T10:31:29;20.77;;;10.82;;
29358;SDS011;16347;53.232;6.556;2024-01-30T10:33:57;36.85;;;12.55;;
